Latest Weather Observations for Scoresby

IDV60801

Issued at 11:32 pm EST Sunday 21 July 2019 (issued every 10 minutes, with the page automatically refreshed every 10 minutes)

About weather observations | Map of weather stations | Latest weather observations for VIC | Other Formats
Station Details ID: 086104 Name: SCORESBY RESEARCH INSTITUTE Lat: -37.87 Lon: 145.26 Height: 80.0 m
Data from the previous 72 hours. | See also: Recent months at Scoresby
Date/Time
EST
Temp
°C
App
Temp
°C
Dew
Point
°C
Rel
Hum
%
Delta-T
°C
Wind Press
QNH
hPa
Press
MSL
hPa
Rain since
9am
mm
Dir  Spd
km/h
Gust
km/h
Spd
kts
Gust
kts
21/11:30pm 9.0 6.1 4.8 75 1.9 NNE 9 13 5 7 - - 0.0
21/11:00pm 9.0 6.5 5.0 76 1.8 NNE 7 13 4 7 - - 0.0
21/10:30pm 9.0 6.6 5.4 78 1.6 NNE 7 11 4 6 - - 0.0
21/10:00pm 8.8 6.4 5.2 78 1.6 NE 7 11 4 6 - - 0.0
21/09:30pm 9.2 7.0 5.4 77 1.7 NNE 6 9 3 5 - - 0.0
21/09:00pm 9.7 7.3 5.3 74 2.0 NNE 7 15 4 8 - - 0.0
21/08:30pm 9.9 7.7 5.3 73 2.1 NNE 6 9 3 5 - - 0.0
21/08:00pm 10.1 7.9 5.3 72 2.2 NNE 6 9 3 5 - - 0.0
21/07:30pm 11.1 8.8 5.6 69 2.5 NNE 7 9 4 5 - - 0.0
21/07:00pm 11.0 9.3 6.0 71 2.3 NNE 4 7 2 4 - - 0.0
21/06:30pm 11.6 9.9 5.9 68 2.7 NNE 4 7 2 4 - - 0.0
21/06:00pm 12.2 10.1 5.8 65 3.0 NNE 6 11 3 6 - - 0.0
21/05:30pm 12.5 10.3 5.4 62 3.3 NE 6 7 3 4 - - 0.0
21/05:00pm 13.6 11.1 4.7 55 4.1 NNW 7 11 4 6 - - 0.0
21/04:30pm 14.3 11.0 4.6 52 4.5 NNW 11 20 6 11 - - 0.0
21/04:00pm 14.2 11.7 4.8 53 4.4 NNW 7 15 4 8 - - 0.0
21/03:30pm 14.8 11.9 4.5 50 4.8 NNW 9 20 5 11 - - 0.0
21/03:00pm 14.1 11.2 4.4 52 4.5 N 9 19 5 10 - - 0.0
21/02:30pm 14.9 11.2 4.6 50 4.8 NNW 13 20 7 11 - - 0.0
21/02:00pm 14.3 11.1 4.9 53 4.4 NW 11 17 6 9 - - 0.0
21/01:30pm 13.9 11.0 4.5 53 4.3 N 9 19 5 10 - - 0.0
21/01:00pm 14.5 11.2 4.5 51 4.6 N 11 24 6 13 - - 0.0
21/12:30pm 14.7 11.5 5.0 52 4.6 N 11 20 6 11 - - 0.0
21/12:00pm 14.4 10.8 5.0 53 4.4 N 13 20 7 11 - - 0.0
21/11:30am 13.5 10.6 4.9 56 4.0 N 9 19 5 10 - - 0.0
21/11:00am 12.6 9.2 4.1 56 3.9 N 11 24 6 13 - - 0.0
21/10:30am 12.3 9.3 4.0 57 3.7 N 9 20 5 11 - - 0.0
21/10:00am 12.2 8.7 3.7 56 3.8 N 11 22 6 12 - - 0.0
21/09:30am 12.4 7.8 3.6 55 3.9 NNE 17 28 9 15 - - 0.0
21/09:00am 12.6 7.9 3.3 53 4.1 N 17 26 9 14 - - 0.0
21/08:30am 12.7 8.7 3.1 52 4.3 N 13 26 7 14 - - 0.0
21/08:00am 13.1 7.9 2.6 49 4.6 N 19 35 10 19 - - 0.0
21/07:30am 13.5 8.6 2.1 46 5.0 N 17 30 9 16 - - 0.0
21/07:00am 13.8 8.5 2.1 45 5.1 N 19 39 10 21 - - 0.0
21/06:30am 13.9 8.7 2.2 45 5.2 NNE 19 35 10 19 - - 0.0
21/06:00am 12.7 8.1 3.6 54 4.1 NNE 17 35 9 19 - - 0.0
21/05:30am 12.6 7.5 4.1 56 3.9 NE 20 35 11 19 - - 0.0
21/05:00am 12.4 6.2 4.1 57 3.8 NNE 26 39 14 21 - - 0.0
21/04:30am 12.7 7.3 4.4 57 3.8 NNE 22 39 12 21 - - 0.0
21/04:00am 13.0 7.9 4.2 55 4.0 NNE 20 39 11 21 - - 0.0
21/03:30am 12.8 7.4 4.5 57 3.8 NE 22 35 12 19 - - 0.0
21/03:00am 12.7 7.9 4.7 58 3.7 NNE 19 35 10 19 - - 0.0
21/02:30am 13.1 8.3 4.8 57 3.8 NNE 19 39 10 21 - - 0.0
21/02:00am 12.8 7.9 5.2 60 3.5 NNE 20 35 11 19 - - 0.0
21/01:30am 12.8 8.0 5.5 61 3.4 NNE 20 35 11 19 - - 0.0
21/01:00am 12.8 8.0 5.7 62 3.3 NNE 20 35 11 19 - - 0.0
21/12:30am 12.8 8.1 5.9 63 3.3 NNE 20 41 11 22 - - 0.0
21/12:00am 12.6 7.5 6.2 65 3.0 NNE 22 37 12 20 - - 0.0
 
Date/Time
EST
Temp
°C
App
Temp
°C
Dew
Point
°C
Rel
Hum
%
Delta-T
°C
Wind Press
QNH
hPa
Press
MSL
hPa
Rain since
9am
mm
Dir  Spd
km/h
Gust
km/h
Spd
kts
Gust
kts
20/11:30pm 12.8 8.7 6.4 65 3.1 NNE 17 26 9 14 - - 0.0
20/11:00pm 12.9 8.5 6.5 65 3.1 NNE 19 39 10 21 - - 0.0
20/10:30pm 12.9 8.3 6.5 65 3.1 NNE 20 33 11 18 - - 0.0
20/10:00pm 13.2 8.2 6.3 63 3.3 NNE 22 44 12 24 - - 0.0
20/09:30pm 13.2 8.7 6.3 63 3.3 NNE 19 35 10 19 - - 0.0
20/09:00pm 13.1 9.3 6.0 62 3.4 NNE 15 28 8 15 - - 0.0
20/08:30pm 13.3 8.6 5.9 61 3.5 NNE 20 37 11 20 - - 0.0
20/08:00pm 13.2 8.5 5.9 61 3.5 NNE 20 33 11 18 - - 0.0
20/07:30pm 13.1 8.6 6.0 62 3.4 NNE 19 30 10 16 - - 0.0
20/07:00pm 13.2 8.6 6.3 63 3.3 NNE 20 32 11 17 - - 0.0
20/06:30pm 13.2 9.1 6.3 63 3.3 NNE 17 28 9 15 - - 0.0
20/06:00pm 13.6 9.2 6.5 62 3.4 NNE 19 33 10 18 - - 0.0
20/05:30pm 13.7 9.1 6.6 62 3.4 NNE 20 33 11 18 - - 0.0
20/05:00pm 14.2 9.9 6.8 61 3.6 NNE 19 28 10 15 - - 0.0
20/04:30pm 14.7 10.4 7.0 60 3.8 NNE 19 30 10 16 - - 0.0
20/04:00pm 15.2 9.9 6.7 57 4.2 NNE 24 44 13 24 - - 0.0
20/03:30pm 15.6 11.0 6.6 55 4.4 NNE 20 41 11 22 - - 0.0
20/03:00pm 15.4 9.9 5.9 53 4.6 N 24 46 13 25 - - 0.0
20/02:30pm 15.9 11.3 6.6 54 4.6 NNE 20 43 11 23 - - 0.0
20/02:00pm 15.9 11.4 7.1 56 4.4 NNE 20 37 11 20 - - 0.0
20/01:30pm 15.2 10.4 7.3 59 3.9 NNE 22 43 12 23 - - 0.0
20/01:00pm 15.0 9.8 7.3 60 3.8 NNE 24 37 13 20 - - 0.0
20/12:30pm 15.1 10.7 7.4 60 3.8 NNE 20 35 11 19 - - 0.0
20/12:00pm 14.5 9.6 7.1 61 3.6 NNE 22 37 12 20 - - 0.0
20/11:30am 14.6 10.1 6.9 60 3.8 N 20 35 11 19 - - 0.0
20/11:00am 14.1 9.6 6.9 62 3.5 NNE 20 37 11 20 - - 0.0
20/10:30am 13.6 9.2 6.7 63 3.3 NNE 19 32 10 17 - - 0.0
20/10:00am 12.9 8.4 6.3 64 3.1 NNE 19 33 10 18 - - 0.0
20/09:30am 12.1 7.5 5.7 65 3.0 NNE 19 32 10 17 - - 0.0
20/09:00am 11.6 6.9 5.3 65 2.9 NE 19 30 10 16 - - 0.0
20/08:30am 11.0 7.0 4.9 66 2.8 NE 15 26 8 14 - - 0.0
20/08:00am 10.1 6.1 4.7 69 2.4 NE 15 22 8 12 - - 0.0
20/07:30am 9.9 5.8 4.3 68 2.5 NNE 15 20 8 11 - - 0.0
20/07:00am 9.6 5.5 4.2 69 2.4 NE 15 22 8 12 - - 0.0
20/06:30am 9.4 5.2 4.0 69 2.4 NNE 15 24 8 13 - - 0.0
20/06:00am 9.3 5.5 4.1 70 2.3 NNE 13 19 7 10 - - 0.0
20/05:30am 9.3 5.5 4.1 70 2.3 NNE 13 20 7 11 - - 0.0
20/05:00am 9.3 5.5 4.1 70 2.3 NNE 13 20 7 11 - - 0.0
20/04:30am 9.2 5.1 4.2 71 2.2 NE 15 24 8 13 - - 0.0
20/04:00am 9.1 5.0 4.1 71 2.2 NE 15 24 8 13 - - 0.0
20/03:30am 8.8 4.7 4.2 73 2.0 NE 15 24 8 13 - - 0.0
20/03:00am 8.6 4.4 4.0 73 2.0 NE 15 26 8 14 - - 0.0
20/02:30am 8.3 4.1 3.9 74 1.9 NE 15 24 8 13 - - 0.0
20/02:00am 8.1 3.5 3.9 75 1.8 NE 17 26 9 14 - - 0.0
20/01:30am 8.1 3.5 3.9 75 1.8 NE 17 26 9 14 - - 0.0
20/01:00am 7.9 3.7 3.9 76 1.7 NE 15 24 8 13 - - 0.0
20/12:30am 8.4 4.2 3.8 73 2.0 NE 15 24 8 13 - - 0.0
20/12:00am 8.7 4.5 3.9 72 2.1 NE 15 24 8 13 - - 0.0
 
Date/Time
EST
Temp
°C
App
Temp
°C
Dew
Point
°C
Rel
Hum
%
Delta-T
°C
Wind Press
QNH
hPa
Press
MSL
hPa
Rain since
9am
mm
Dir  Spd
km/h
Gust
km/h
Spd
kts
Gust
kts
19/11:30pm 8.2 4.5 4.2 76 1.8 NE 13 20 7 11 - - 0.0
19/11:00pm 7.7 4.4 4.3 79 1.5 NNE 11 17 6 9 - - 0.0
19/10:30pm 8.1 5.2 4.5 78 1.6 NNE 9 17 5 9 - - 0.0
19/10:00pm 8.2 5.3 4.4 77 1.7 NNE 9 13 5 7 - - 0.0
19/09:30pm 8.1 5.2 4.5 78 1.6 NE 9 15 5 8 - - 0.0
19/09:00pm 8.5 5.6 4.5 76 1.8 NNE 9 17 5 9 - - 0.0
19/08:30pm 8.8 5.5 4.6 75 1.9 NNE 11 17 6 9 - - 0.0
19/08:00pm 9.0 6.1 4.4 73 2.0 NNE 9 15 5 8 - - 0.0
19/07:30pm 9.5 6.6 4.5 71 2.2 NNE 9 13 5 7 - - 0.0
19/07:00pm 10.5 7.2 4.6 67 2.7 NNE 11 19 6 10 - - 0.0
19/06:30pm 10.7 8.2 4.8 67 2.7 NNE 7 11 4 6 - - 0.0
19/06:00pm 11.2 8.8 5.1 66 2.8 NNE 7 19 4 10 - - 0.0
19/05:30pm 11.4 9.4 4.4 62 3.2 N 4 9 2 5 - - 0.0
19/05:00pm 12.7 10.1 4.4 57 3.8 N 7 15 4 8 - - 0.0
19/04:30pm 13.7 11.2 4.8 55 4.1 N 7 15 4 8 - - 0.0
19/04:00pm 13.9 11.4 4.5 53 4.3 NNW 7 17 4 9 - - 0.0
19/03:30pm 13.9 11.4 4.5 53 4.3 NNW 7 13 4 7 - - 0.0
19/03:00pm 14.3 11.8 4.9 53 4.4 N 7 19 4 10 - - 0.0
19/02:30pm 13.6 11.1 4.5 54 4.2 N 7 17 4 9 - - 0.0
19/02:00pm 13.9 11.3 4.2 52 4.5 N 7 15 4 8 - - 0.0
19/01:30pm 12.7 10.2 3.9 55 4.0 NNW 6 13 3 7 - - 0.0
19/01:00pm 13.4 11.3 5.8 60 3.6 W 6 11 3 6 - - 0.0
19/12:30pm 12.2 9.7 4.7 60 3.4 WSW 7 13 4 7 - - 0.0
19/12:00pm 12.8 10.5 5.7 62 3.3 NW 7 11 4 6 - - 0.0
19/11:30am 11.8 9.5 5.9 67 2.8 NW 7 11 4 6 - - 0.0
19/11:00am 12.2 10.2 7.3 72 2.4 NW 7 15 4 8 - - 0.0
19/10:30am 11.6 9.2 7.1 74 2.2 WNW 9 17 5 9 - - 0.0
19/10:00am 10.6 8.8 7.1 79 1.7 NW 6 13 3 7 - - 0.0
19/09:30am 9.7 8.3 7.1 84 1.2 NNW 4 9 2 5 - - 0.0
19/09:00am 9.4 9.0 8.2 92 0.6 CALM 0 2 0 1 - - 1.6
19/08:30am 7.5 6.8 6.9 96 0.3 CALM 0 0 0 0 - - 1.6
19/08:00am 7.6 6.9 7.0 96 0.3 CALM 0 0 0 0 - - 1.6
19/07:30am 7.8 6.8 7.4 97 0.2 NE 2 6 1 3 - - 1.6
19/07:00am 7.3 6.5 6.7 96 0.3 CALM 0 4 0 2 - - 1.4
19/06:30am 7.5 6.8 6.9 96 0.3 CALM 0 4 0 2 - - 1.4
19/06:00am 7.7 6.6 7.0 95 0.3 NE 2 6 1 3 - - 1.4
19/05:30am 8.1 6.3 7.3 95 0.4 NE 6 9 3 5 - - 1.4
19/05:00am 8.5 6.8 7.7 95 0.4 NE 6 9 3 5 - - 1.4
19/04:30am 8.6 6.7 7.7 94 0.4 NE 7 11 4 6 - - 1.4
19/04:00am 9.1 7.4 8.2 94 0.4 NE 7 9 4 5 - - 1.4
19/03:30am 9.3 7.6 8.4 94 0.4 NNE 7 15 4 8 - - 1.4
19/03:00am 9.4 7.9 8.5 94 0.4 N 6 11 3 6 - - 1.4
19/02:30am 9.5 8.4 8.3 92 0.6 NW 4 7 2 4 - - 1.4
19/02:00am 9.6 7.0 7.9 89 0.8 NNE 11 19 6 10 - - 0.6
19/01:30am 9.8 6.4 7.7 87 1.0 N 15 24 8 13 - - 0.6
19/01:00am 10.0 7.0 7.8 86 1.1 NNE 13 24 7 13 - - 0.4
19/12:30am 10.1 7.1 7.7 85 1.2 NNE 13 22 7 12 - - 0.4
19/12:00am 10.7 6.8 7.2 79 1.7 NNE 17 32 9 17 - - 0.2

Other formats

Comma delimited format used in spreadsheet applications
http://www.bom.gov.au/fwo/IDV60801/IDV60801.95867.axf

JavaScript Object Notation format (JSON) in row-major order
http://www.bom.gov.au/fwo/IDV60801/IDV60801.95867.json

Data quality

Most of these data are generated automatically and are frequently updated. Quality checks on data are not normally performed. It is possible for incorrect values to appear. Refer to information at About Latest Weather Observations and please check the disclaimer before using these data.